Meteo Giornale » Osservazioni meteo Croazia » Pula Aerodrome

ore: 15:30 - Osservazioni Meteo Pula Aerodrome
Lat. 45° 54' N Lon. 13° 55' E Alt. 63 metri s.l.m.

sereno Europe/Zagreb

11 °C

Sereno

Temp. 24 Ore

-1 °C

12 °C

Sud/Sud-Ovest

11.1 Km/h

Dew point 5 °C

Umidità 66 %

Visibilità  10 Km

Il sole sorge alle ore 07:39

Il sole tramonta alle ore 16:48

Data e Ora Cielo e Fenomeni T °C DP °C Um. % Pres. hPa Vis. km Vento km/h
Oggi h: 15:30 sereno Sereno 11 5 66 1019 10 S/SO 11.1
Oggi h: 15:00 sereno Sereno 11 4 61 1019 10 SO 11.1
Oggi h: 14:30 sereno Sereno 11 3 57 1019 10 SO 11.1
Oggi h: 14:00 sereno Sereno 12 3 54 1019 10 O/SO 13
Oggi h: 13:30 sereno Sereno 12 3 54 1019 10 SO 11.1
Oggi h: 13:00 sereno Sereno 12 3 54 1019 10 SO 11.1
Oggi h: 12:30 sereno Sereno 11 3 57 1020 10 O 9.3
Oggi h: 12:00 sereno Sereno 11 2 53 1020 10 O/SO 9.3
Oggi h: 11:30 sereno Sereno 11 3 57 1020 10 O/SO 7.4
Oggi h: 11:00 sereno Sereno 10 2 57 1020 10 O 7.4
Oggi h: 10:30 sereno Sereno 10 3 61 1020 10 N 5.5
Oggi h: 10:00 sereno Sereno 10 4 66 1020 10 N 0
Oggi h: 09:30 sereno Sereno 6 5 93 1020 10 N 0
Oggi h: 09:00 sereno Sereno 3 2 93 1020 10 N 1.8
Oggi h: 08:30 nebbia Nebbia a Strati 1 1 100 1020 10 N 5.5
Oggi h: 08:00 sereno Sereno 0 -0 100 1020 10 N 5.5
Oggi h: 07:30 sereno Sereno 1 -0 93 1019 10 N 5.5
Oggi h: 07:00 sereno Sereno 1 1 100 1019 10 N 5.5
Oggi h: 06:30 sereno Sereno 1 -0 93 1019 10 E 7.4
Oggi h: 06:00 sereno Sereno 0 -1 92 1019 10 E/SE 7.4
Oggi h: 05:30 sereno Sereno 2 1 93 1019 10 N 3.7
Oggi h: 05:00 sereno Sereno 2 -0 86 1019 10 N 5.5
Oggi h: 04:30 sereno Sereno 5 2 80 1019 10 E/NE 9.3
Oggi h: 03:30 sereno Sereno 5 2 80 1019 10 E/NE 11.1
Oggi h: 03:00 sereno Sereno 4 2 86 1019 10 E/NE 13
Oggi h: 02:30 sereno Sereno 5 2 80 1019 10 E 11.1
Oggi h: 02:00 sereno Sereno 4 2 86 1019 10 E/NE 11.1
Oggi h: 01:30 sereno Sereno 4 1 80 1019 10 E 11.1
Oggi h: 01:00 sereno Sereno 5 1 75 1019 10 E 11.1
Oggi h: 00:30 sereno Sereno 4 1 80 1019 10 E 11.1
Oggi h: 00:00 sereno Sereno -1 -3 86 1020 10 E 7.4
Ieri h: 23:30 sereno Sereno 0 -2 86 1020 10 E/NE 7.4
Ieri h: 23:00 sereno Sereno 0 -2 86 1020 10 E 7.4
Ieri h: 22:30 sereno Sereno 1 -1 86 1020 10 N 5.5
Ieri h: 22:00 sereno Sereno -0 -2 86 1020 10 N 5.5
Ieri h: 21:30 sereno Sereno 1 -1 86 1020 10 N 5.5
Ieri h: 21:00 sereno Sereno 0 -2 86 1020 10 N 5.5
Ieri h: 20:30 sereno Sereno 2 -2 74 1019 10 N 5.5
Ieri h: 20:00 sereno Sereno 2 -3 69 1019 10 N 5.5
Ieri h: 19:30 sereno Sereno -0 -4 74 1019 10 N 5.5
Ieri h: 19:00 sereno Sereno -1 -5 74 1019 10 N 1.8
Ieri h: 18:30 sereno Sereno 1 -3 74 1019 10 N 5.5
Ieri h: 18:00 sereno Sereno 0 -4 74 1019 10 N 1.8
Ieri h: 17:30 sereno Sereno 3 -3 64 1019 10 N 3.7
Ieri h: 17:00 sereno Sereno 7 -2 52 1019 10 N 3.7
Ieri h: 16:30 sereno Sereno 9 -2 45 1019 10 N 5.5
Ieri h: 16:00 sereno Sereno 10 -2 42 1019 10 S/SO 11.1
Ieri h: 15:30 sereno Sereno 10 -1 46 1019 10 N 9.3
Ieri h: 15:00 sereno Sereno 10 -2 42 1019 10 S 9.3